createdAt,value
2018-10-06T00:00:21.763Z,63.60
2018-10-06T00:02:50.603Z,63.70
2018-10-06T00:05:19.567Z,63.60
2018-10-06T00:07:48.257Z,63.60
2018-10-06T00:10:17.016Z,63.40
2018-10-06T00:12:45.581Z,63.40
2018-10-06T00:15:14.257Z,63.60
2018-10-06T00:17:42.844Z,63.30
2018-10-06T00:20:10.948Z,63.30
2018-10-06T00:22:38.664Z,63.40
2018-10-06T00:25:08.020Z,63.20
2018-10-06T00:27:37.328Z,63.20
2018-10-06T00:30:06.601Z,63.10
2018-10-06T00:32:37.013Z,63.50
2018-10-06T00:35:06.304Z,62.90
2018-10-06T00:37:37.019Z,63.10
2018-10-06T00:40:06.614Z,63.20
2018-10-06T00:42:36.815Z,63.00
2018-10-06T00:45:06.442Z,63.10
2018-10-06T00:47:36.588Z,62.90
2018-10-06T00:50:06.826Z,62.90
2018-10-06T00:52:36.980Z,62.90
2018-10-06T00:55:07.227Z,62.90
2018-10-06T00:57:37.528Z,62.90
2018-10-06T01:00:07.332Z,63.00
2018-10-06T01:02:37.456Z,62.80
2018-10-06T01:05:07.824Z,62.80
2018-10-06T01:07:36.982Z,62.70
2018-10-06T01:10:07.524Z,62.90
2018-10-06T01:12:37.138Z,63.00
2018-10-06T01:15:07.085Z,62.80
2018-10-06T01:17:37.001Z,62.90
2018-10-06T01:20:06.704Z,62.70
2018-10-06T01:22:36.520Z,62.70
2018-10-06T01:25:06.814Z,62.60
2018-10-06T01:27:36.961Z,62.90
2018-10-06T01:30:05.266Z,62.60
2018-10-06T01:32:34.626Z,62.70
2018-10-06T01:35:03.327Z,62.70
2018-10-06T01:37:32.036Z,62.70
2018-10-06T01:40:00.620Z,62.70
2018-10-06T01:42:29.339Z,62.70
2018-10-06T01:44:58.067Z,62.70
2018-10-06T01:47:26.759Z,62.80
2018-10-06T01:49:55.381Z,62.60
2018-10-06T01:52:24.046Z,62.70
2018-10-06T01:54:52.584Z,62.50
2018-10-06T01:57:21.123Z,62.40
2018-10-06T01:59:49.779Z,62.30
2018-10-06T02:02:18.486Z,62.40
2018-10-06T02:04:46.154Z,62.30
2018-10-06T02:07:14.836Z,62.50
2018-10-06T02:09:43.563Z,62.50
2018-10-06T02:12:12.253Z,62.60
2018-10-06T02:14:40.834Z,62.70
2018-10-06T02:17:09.503Z,62.50
2018-10-06T02:19:38.266Z,62.50
2018-10-06T02:22:07.412Z,63.30
2018-10-06T02:24:37.721Z,62.60
2018-10-06T02:27:07.404Z,62.70
2018-10-06T02:29:37.692Z,62.90
2018-10-06T02:32:07.248Z,63.00
2018-10-06T02:34:37.875Z,63.00
2018-10-06T02:37:06.650Z,63.20
2018-10-06T02:39:35.550Z,63.20
2018-10-06T02:42:06.372Z,63.20
2018-10-06T02:44:37.250Z,63.20
2018-10-06T02:47:07.758Z,63.00
2018-10-06T02:49:37.376Z,63.20
2018-10-06T02:52:06.953Z,63.10
2018-10-06T02:54:37.457Z,63.00
2018-10-06T02:57:07.127Z,63.10
2018-10-06T02:59:36.384Z,63.10
2018-10-06T03:02:04.556Z,63.10
2018-10-06T03:04:32.224Z,63.10
2018-10-06T03:06:59.915Z,63.20
2018-10-06T03:09:27.596Z,63.20
2018-10-06T03:11:55.280Z,63.30
2018-10-06T03:14:22.944Z,63.00
2018-10-06T03:16:50.613Z,63.10
2018-10-06T03:19:18.310Z,63.10
2018-10-06T03:21:45.984Z,63.10
2018-10-06T03:24:13.651Z,63.00
2018-10-06T03:26:41.333Z,62.70
2018-10-06T03:29:09.068Z,62.90
2018-10-06T03:31:38.116Z,62.70
2018-10-06T03:34:07.759Z,62.70
2018-10-06T03:36:36.659Z,62.50
2018-10-06T03:39:07.087Z,62.70
2018-10-06T03:41:36.794Z,62.50
2018-10-06T03:44:05.677Z,62.50
2018-10-06T03:46:33.341Z,62.50
2018-10-06T03:49:01.004Z,62.50
2018-10-06T03:51:28.663Z,62.40
2018-10-06T03:53:56.383Z,62.30
2018-10-06T03:56:24.025Z,62.50
2018-10-06T03:58:51.693Z,62.10
2018-10-06T04:01:19.352Z,62.30
2018-10-06T04:03:47.019Z,62.30
2018-10-06T04:06:14.684Z,62.30
2018-10-06T04:08:43.260Z,62.20
2018-10-06T04:11:10.920Z,62.30
2018-10-06T04:13:38.592Z,62.20
2018-10-06T04:16:07.205Z,62.30
2018-10-06T04:18:37.788Z,62.30
2018-10-06T04:21:07.401Z,62.10
2018-10-06T04:23:37.713Z,62.30
2018-10-06T04:26:07.305Z,62.40
2018-10-06T04:28:37.081Z,62.80
2018-10-06T04:31:07.643Z,61.90
2018-10-06T04:33:37.757Z,62.00
2018-10-06T04:36:06.600Z,61.90
2018-10-06T04:38:37.873Z,62.10
2018-10-06T04:41:07.537Z,62.00
2018-10-06T04:43:37.299Z,62.20
2018-10-06T04:46:07.538Z,62.20
2018-10-06T04:48:37.792Z,62.00
2018-10-06T04:51:08.545Z,61.90
2018-10-06T04:53:37.784Z,62.10
2018-10-06T04:56:07.724Z,62.00
2018-10-06T04:58:37.384Z,61.80
2018-10-06T05:01:06.775Z,62.00
2018-10-06T05:03:36.576Z,62.10
2018-10-06T05:06:04.255Z,62.20
2018-10-06T05:08:32.976Z,62.20
2018-10-06T05:11:00.652Z,62.00
2018-10-06T05:13:29.379Z,62.30
2018-10-06T05:15:57.039Z,62.10
2018-10-06T05:18:25.613Z,62.00
2018-10-06T05:20:54.292Z,62.20
2018-10-06T05:23:23.066Z,61.90
2018-10-06T05:25:51.764Z,61.50
2018-10-06T05:28:20.364Z,61.50
2018-10-06T05:30:48.035Z,61.70
2018-10-06T05:33:16.768Z,61.80
2018-10-06T05:35:45.439Z,61.80
2018-10-06T05:38:13.984Z,61.70
2018-10-06T05:40:42.736Z,61.60
2018-10-06T05:43:17.981Z,61.80
2018-10-06T05:45:46.596Z,62.00
2018-10-06T05:48:15.156Z,61.90
2018-10-06T05:50:43.901Z,61.40
2018-10-06T05:53:12.581Z,61.60
2018-10-06T05:55:41.799Z,61.40
2018-10-06T05:58:10.455Z,61.40
2018-10-06T06:00:39.161Z,61.30
2018-10-06T06:03:07.868Z,61.50
2018-10-06T06:05:38.265Z,61.40
2018-10-06T06:08:07.564Z,61.70
2018-10-06T06:10:37.807Z,61.30
2018-10-06T06:13:07.309Z,61.00
2018-10-06T06:15:37.071Z,61.20
2018-10-06T06:18:07.184Z,61.50
2018-10-06T06:20:38.010Z,61.60
2018-10-06T06:23:08.085Z,61.70
2018-10-06T06:25:38.636Z,61.90
2018-10-06T06:28:07.909Z,61.90
2018-10-06T06:30:36.628Z,61.80
2018-10-06T06:33:07.567Z,61.90
2018-10-06T06:35:37.664Z,61.90
2018-10-06T06:38:07.717Z,62.00
2018-10-06T06:40:37.328Z,62.00
2018-10-06T06:43:07.144Z,62.10
2018-10-06T06:45:37.439Z,62.40
2018-10-06T06:48:07.740Z,62.00
2018-10-06T06:50:37.035Z,61.90
2018-10-06T06:53:07.103Z,62.00
2018-10-06T06:55:36.521Z,62.00
2018-10-06T06:58:04.823Z,61.90
2018-10-06T07:00:32.484Z,62.00
2018-10-06T07:03:00.340Z,62.00
2018-10-06T07:05:28.004Z,61.90
2018-10-06T07:07:56.197Z,62.00
2018-10-06T07:10:24.402Z,62.90
2018-10-06T07:12:52.056Z,62.10
2018-10-06T07:15:19.754Z,62.10
2018-10-06T07:17:47.419Z,62.00
2018-10-06T07:20:15.089Z,62.10
2018-10-06T07:22:43.072Z,62.10
2018-10-06T07:25:10.746Z,62.00
2018-10-06T07:27:38.411Z,61.90
2018-10-06T07:30:07.669Z,62.00
2018-10-06T07:32:37.008Z,62.00
2018-10-06T07:35:04.704Z,61.90
2018-10-06T07:37:32.375Z,62.00
2018-10-06T07:40:00.044Z,62.30
2018-10-06T07:42:27.709Z,62.30
2018-10-06T07:44:55.442Z,62.30
2018-10-06T07:47:23.076Z,62.10
2018-10-06T07:49:50.732Z,62.00
2018-10-06T07:52:18.395Z,62.10
2018-10-06T07:54:46.217Z,62.20
2018-10-06T07:57:13.884Z,62.20
2018-10-06T07:59:41.547Z,62.30
2018-10-06T08:02:09.207Z,62.30
2018-10-06T08:04:37.872Z,62.40
2018-10-06T08:07:07.247Z,62.40
2018-10-06T08:09:36.366Z,62.60
2018-10-06T08:12:04.029Z,62.50
2018-10-06T08:14:32.686Z,62.30
2018-10-06T08:17:01.355Z,62.20
2018-10-06T08:19:30.272Z,61.90
2018-10-06T08:21:58.864Z,62.10
2018-10-06T08:24:27.530Z,62.10
2018-10-06T08:26:55.216Z,62.10
2018-10-06T08:29:22.875Z,62.10
2018-10-06T08:31:50.549Z,62.30
2018-10-06T08:34:18.214Z,62.30
2018-10-06T08:36:45.943Z,62.70
2018-10-06T08:39:13.609Z,62.70
2018-10-06T08:41:41.274Z,62.70
2018-10-06T08:44:08.953Z,62.50
2018-10-06T08:46:37.596Z,62.70
2018-10-06T08:49:07.541Z,62.40
2018-10-06T08:51:35.668Z,62.50
2018-10-06T08:54:04.834Z,62.60
2018-10-06T08:56:32.555Z,62.80
2018-10-06T08:59:00.184Z,62.70
2018-10-06T09:01:28.868Z,62.70
2018-10-06T09:03:57.552Z,62.40
2018-10-06T09:06:26.212Z,63.50
2018-10-06T09:08:54.790Z,63.00
2018-10-06T09:11:22.467Z,62.70
2018-10-06T09:13:51.139Z,62.70
2018-10-06T09:16:19.800Z,62.70
2018-10-06T09:18:48.487Z,62.30
2018-10-06T09:21:17.152Z,62.60
2018-10-06T09:23:45.851Z,62.60
2018-10-06T09:26:14.605Z,62.80
2018-10-06T09:28:42.283Z,62.50
2018-10-06T09:31:10.942Z,62.60
2018-10-06T09:33:40.471Z,62.70
2018-10-06T09:36:09.164Z,62.50
2018-10-06T09:38:37.851Z,62.50
2018-10-06T09:41:07.960Z,62.30
2018-10-06T09:43:38.072Z,62.30
2018-10-06T09:46:07.608Z,62.50
2018-10-06T09:48:37.738Z,62.50
2018-10-06T09:51:07.749Z,62.50
2018-10-06T09:53:37.521Z,62.80
2018-10-06T09:56:07.609Z,62.70
2018-10-06T09:58:37.240Z,62.90
2018-10-06T10:01:12.302Z,62.70
2018-10-06T10:03:45.388Z,62.80
2018-10-06T10:06:13.925Z,63.00
2018-10-06T10:08:41.588Z,63.30
2018-10-06T10:11:09.275Z,63.20
2018-10-06T10:13:38.399Z,63.30
2018-10-06T10:16:08.213Z,63.10
2018-10-06T10:18:38.036Z,63.50
2018-10-06T10:21:06.840Z,63.20
2018-10-06T10:23:36.591Z,62.80
2018-10-06T10:26:05.791Z,62.50
2018-10-06T10:28:34.902Z,62.50
2018-10-06T10:31:03.521Z,62.50
2018-10-06T10:33:32.213Z,62.40
2018-10-06T10:36:00.947Z,62.30
2018-10-06T10:38:28.619Z,62.30
2018-10-06T10:40:57.360Z,62.30
2018-10-06T10:43:26.024Z,62.30
2018-10-06T10:45:54.239Z,62.30
2018-10-06T10:48:23.170Z,62.30
2018-10-06T10:50:51.760Z,62.30
2018-10-06T10:53:20.497Z,62.50
2018-10-06T10:55:48.205Z,62.50
2018-10-06T10:58:16.872Z,62.60
2018-10-06T11:00:45.464Z,62.70
2018-10-06T11:03:14.120Z,62.70
2018-10-06T11:05:42.791Z,62.90
2018-10-06T11:08:11.549Z,62.70
2018-10-06T11:10:40.156Z,62.80
2018-10-06T11:13:07.849Z,63.00
2018-10-06T11:15:38.295Z,62.80
2018-10-06T11:18:08.055Z,63.00
2018-10-06T11:20:38.241Z,63.20
2018-10-06T11:23:07.865Z,63.20
2018-10-06T11:25:37.072Z,63.40
2018-10-06T11:28:07.232Z,63.40
2018-10-06T11:30:37.719Z,63.20
2018-10-06T11:33:07.836Z,63.10
2018-10-06T11:35:39.944Z,63.40
2018-10-06T11:38:09.704Z,63.30
2018-10-06T11:40:39.828Z,63.20
2018-10-06T11:43:08.032Z,63.20
2018-10-06T11:45:37.819Z,63.20
2018-10-06T11:48:07.896Z,63.30
2018-10-06T11:50:37.324Z,63.30
2018-10-06T11:53:06.480Z,63.40
2018-10-06T11:55:36.301Z,63.40
2018-10-06T11:58:04.908Z,63.50
2018-10-06T12:00:33.676Z,63.50
2018-10-06T12:03:03.432Z,63.60
2018-10-06T12:05:32.047Z,63.90
2018-10-06T12:08:00.644Z,63.50
2018-10-06T12:10:29.328Z,63.70
2018-10-06T12:12:57.997Z,63.80
2018-10-06T12:15:25.795Z,63.80
2018-10-06T12:17:53.452Z,63.80
2018-10-06T12:20:21.142Z,63.70
2018-10-06T12:22:48.820Z,64.50
2018-10-06T12:25:16.508Z,63.80
2018-10-06T12:27:44.184Z,63.80
2018-10-06T12:30:11.849Z,63.70
2018-10-06T12:32:39.516Z,63.80
2018-10-06T12:35:08.354Z,63.80
2018-10-06T12:37:37.936Z,64.10
2018-10-06T12:40:06.815Z,64.20
2018-10-06T12:42:34.954Z,63.90
2018-10-06T12:45:02.624Z,64.10
2018-10-06T12:47:30.289Z,64.00
2018-10-06T12:49:57.988Z,64.10
2018-10-06T12:52:25.659Z,64.30
2018-10-06T12:54:53.323Z,64.10
2018-10-06T12:57:20.988Z,64.10
2018-10-06T12:59:48.658Z,64.40
2018-10-06T13:02:17.225Z,64.60
2018-10-06T13:04:45.907Z,65.00
2018-10-06T13:07:14.643Z,64.80
2018-10-06T13:09:42.308Z,65.10
2018-10-06T13:12:09.988Z,64.80
2018-10-06T13:14:38.660Z,64.90
2018-10-06T13:17:07.161Z,65.00
2018-10-06T13:19:35.836Z,65.20
2018-10-06T13:22:03.593Z,65.00
2018-10-06T13:24:31.265Z,65.50
2018-10-06T13:26:58.932Z,65.60
2018-10-06T13:29:26.596Z,65.50
2018-10-06T13:31:54.313Z,65.70
2018-10-06T13:34:22.859Z,65.80
2018-10-06T13:36:51.534Z,66.20
2018-10-06T13:39:20.212Z,66.30
2018-10-06T13:41:47.884Z,66.50
2018-10-06T13:44:15.558Z,66.20
2018-10-06T13:46:43.405Z,66.10
2018-10-06T13:49:11.032Z,66.40
2018-10-06T13:51:38.705Z,66.00
2018-10-06T13:54:08.108Z,66.50
2018-10-06T13:56:36.796Z,66.10
2018-10-06T13:59:05.040Z,66.40
2018-10-06T14:01:32.718Z,66.30
2018-10-06T14:04:00.385Z,66.00
2018-10-06T14:06:28.919Z,66.20
2018-10-06T14:08:57.628Z,66.20
2018-10-06T14:11:26.189Z,66.70
2018-10-06T14:13:54.895Z,66.80
2018-10-06T14:16:22.555Z,66.40
2018-10-06T14:18:50.224Z,66.30
2018-10-06T14:21:18.104Z,66.70
2018-10-06T14:23:45.771Z,66.70
2018-10-06T14:26:13.475Z,66.70
2018-10-06T14:28:42.064Z,66.60
2018-10-06T14:31:10.771Z,66.80
2018-10-06T14:33:39.571Z,66.80
2018-10-06T14:36:08.698Z,66.80
2018-10-06T14:38:38.740Z,66.80
2018-10-06T14:41:08.415Z,67.00
2018-10-06T14:43:38.462Z,67.00
2018-10-06T14:46:08.403Z,67.20
2018-10-06T14:48:38.140Z,67.20
2018-10-06T14:51:07.840Z,67.20
2018-10-06T14:53:37.320Z,67.20
2018-10-06T14:56:08.376Z,67.30
2018-10-06T14:58:37.375Z,67.20
2018-10-06T15:01:07.409Z,67.40
2018-10-06T15:03:37.309Z,67.40
2018-10-06T15:06:07.967Z,67.30
2018-10-06T15:08:38.096Z,67.40
2018-10-06T15:11:08.197Z,67.40
2018-10-06T15:13:38.020Z,67.30
2018-10-06T15:16:07.745Z,67.50
2018-10-06T15:18:38.517Z,67.60
2018-10-06T15:21:08.852Z,67.30
2018-10-06T15:23:37.865Z,67.40
2018-10-06T15:26:07.604Z,67.10
2018-10-06T15:28:36.661Z,67.40
2018-10-06T15:31:06.716Z,67.20
2018-10-06T15:33:35.601Z,67.30
2018-10-06T15:36:03.292Z,67.10
2018-10-06T15:38:30.967Z,67.20
2018-10-06T15:40:58.631Z,66.90
2018-10-06T15:43:26.292Z,66.80
2018-10-06T15:45:53.972Z,66.80
2018-10-06T15:48:22.528Z,66.50
2018-10-06T15:50:50.226Z,66.80
2018-10-06T15:53:17.895Z,66.40
2018-10-06T15:55:45.576Z,66.60
2018-10-06T15:58:13.243Z,66.60
2018-10-06T16:00:40.911Z,66.40
2018-10-06T16:03:08.658Z,66.70
2018-10-06T16:05:38.031Z,66.40
2018-10-06T16:08:07.600Z,66.40
2018-10-06T16:10:37.396Z,66.60
2018-10-06T16:13:06.704Z,66.50
2018-10-06T16:15:35.097Z,66.50
2018-10-06T16:18:03.639Z,67.00
2018-10-06T16:20:32.183Z,67.00
2018-10-06T16:22:59.896Z,66.90
2018-10-06T16:25:28.591Z,66.90
2018-10-06T16:27:56.293Z,67.10
2018-10-06T16:30:24.976Z,67.10
2018-10-06T16:32:53.731Z,67.30
2018-10-06T16:35:22.447Z,67.10
2018-10-06T16:37:51.115Z,67.40
2018-10-06T16:40:18.847Z,67.20
2018-10-06T16:42:47.517Z,67.30
2018-10-06T16:45:16.288Z,67.30
2018-10-06T16:47:44.999Z,67.30
2018-10-06T16:50:13.579Z,67.20
2018-10-06T16:52:42.275Z,67.20
2018-10-06T16:55:10.991Z,67.10
2018-10-06T16:57:38.687Z,67.20
2018-10-06T17:00:08.485Z,67.20
2018-10-06T17:02:38.140Z,67.30
2018-10-06T17:05:09.850Z,67.20
2018-10-06T17:07:39.003Z,67.20
2018-10-06T17:10:08.451Z,67.20
2018-10-06T17:12:37.664Z,67.20
2018-10-06T17:15:06.736Z,67.30
2018-10-06T17:17:37.516Z,67.20
2018-10-06T17:20:07.344Z,67.30
2018-10-06T17:22:36.293Z,67.30
2018-10-06T17:25:06.179Z,67.90
2018-10-06T17:27:33.909Z,67.40
2018-10-06T17:30:01.628Z,67.20
2018-10-06T17:32:29.341Z,67.40
2018-10-06T17:34:57.013Z,67.40
2018-10-06T17:37:25.778Z,67.50
2018-10-06T17:39:53.528Z,67.50
2018-10-06T17:42:22.216Z,67.50
2018-10-06T17:44:49.936Z,67.60
2018-10-06T17:47:18.603Z,67.60
2018-10-06T17:49:46.350Z,67.60
2018-10-06T17:52:14.872Z,67.70
2018-10-06T17:54:42.579Z,67.50
2018-10-06T17:57:10.299Z,67.60
2018-10-06T17:59:37.984Z,67.70
2018-10-06T18:02:07.713Z,67.70
2018-10-06T18:04:37.328Z,67.60
2018-10-06T18:07:06.167Z,67.80
2018-10-06T18:09:33.832Z,67.90
2018-10-06T18:12:02.399Z,67.70
2018-10-06T18:14:30.228Z,67.80
2018-10-06T18:16:57.896Z,67.80
2018-10-06T18:19:25.577Z,67.90
2018-10-06T18:21:53.260Z,67.80
2018-10-06T18:24:20.931Z,67.90
2018-10-06T18:26:48.639Z,67.80
2018-10-06T18:29:16.348Z,67.80
2018-10-06T18:31:44.004Z,67.90
2018-10-06T18:34:11.677Z,68.00
2018-10-06T18:36:39.360Z,67.90
2018-10-06T18:39:08.000Z,67.80
2018-10-06T18:41:36.884Z,67.90
2018-10-06T18:44:05.583Z,68.60
2018-10-06T18:46:33.577Z,67.90
2018-10-06T18:49:01.298Z,67.80
2018-10-06T18:51:28.959Z,67.80
2018-10-06T18:53:56.664Z,67.50
2018-10-06T18:56:24.559Z,67.40
2018-10-06T18:58:52.231Z,67.30
2018-10-06T19:01:19.889Z,67.40
2018-10-06T19:03:47.657Z,67.40
2018-10-06T19:06:15.254Z,67.40
2018-10-06T19:08:42.922Z,67.20
2018-10-06T19:11:10.612Z,66.80
2018-10-06T19:13:39.049Z,67.00
2018-10-06T19:16:08.473Z,67.00
2018-10-06T19:18:37.937Z,67.00
2018-10-06T19:21:06.748Z,67.00
2018-10-06T19:23:34.420Z,66.90
2018-10-06T19:26:04.282Z,66.80
2018-10-06T19:28:31.955Z,67.00
2018-10-06T19:30:59.639Z,67.00
2018-10-06T19:33:28.311Z,67.00
2018-10-06T19:35:57.091Z,66.70
2018-10-06T19:38:24.776Z,66.70
2018-10-06T19:40:52.447Z,66.80
2018-10-06T19:43:21.007Z,66.70
2018-10-06T19:45:49.712Z,66.90
2018-10-06T19:48:18.405Z,67.20
2018-10-06T19:50:47.136Z,67.10
2018-10-06T19:53:15.811Z,67.10
2018-10-06T19:55:44.488Z,67.00
2018-10-06T19:58:13.076Z,66.40
2018-10-06T20:00:41.620Z,66.80
2018-10-06T20:03:10.187Z,66.80
2018-10-06T20:05:37.849Z,66.90
2018-10-06T20:08:08.583Z,66.90
2018-10-06T20:10:37.920Z,66.90
2018-10-06T20:13:07.537Z,66.80
2018-10-06T20:15:36.820Z,66.90
2018-10-06T20:18:04.496Z,66.90
2018-10-06T20:20:34.071Z,67.10
2018-10-06T20:23:02.744Z,67.00
2018-10-06T20:25:31.432Z,66.90
2018-10-06T20:28:00.137Z,66.80
2018-10-06T20:30:28.259Z,66.80
2018-10-06T20:32:56.839Z,66.80
2018-10-06T20:35:25.556Z,66.70
2018-10-06T20:37:54.276Z,66.50
2018-10-06T20:40:22.986Z,66.10
2018-10-06T20:42:51.681Z,66.00
2018-10-06T20:45:20.364Z,65.90
2018-10-06T20:47:49.065Z,65.70
2018-10-06T20:50:17.772Z,66.20
2018-10-06T20:52:46.443Z,65.60
2018-10-06T20:55:15.124Z,65.60
2018-10-06T20:57:43.659Z,65.70
2018-10-06T21:00:12.359Z,65.60
2018-10-06T21:02:40.891Z,65.80
2018-10-06T21:05:09.634Z,65.80
2018-10-06T21:07:38.272Z,65.80
2018-10-06T21:10:07.776Z,65.90
2018-10-06T21:12:37.175Z,65.90
2018-10-06T21:15:06.801Z,66.00
2018-10-06T21:17:35.325Z,66.00
2018-10-06T21:20:03.028Z,66.00
2018-10-06T21:22:30.697Z,66.00
2018-10-06T21:24:58.365Z,66.00
2018-10-06T21:27:26.036Z,66.10
2018-10-06T21:29:53.712Z,66.00
2018-10-06T21:32:21.384Z,66.00
2018-10-06T21:34:49.052Z,66.20
2018-10-06T21:37:16.730Z,66.40
2018-10-06T21:39:44.392Z,66.40
2018-10-06T21:42:12.056Z,66.40
2018-10-06T21:44:39.725Z,66.40
2018-10-06T21:47:08.563Z,66.20
2018-10-06T21:49:38.450Z,66.20
2018-10-06T21:52:07.956Z,66.30
2018-10-06T21:54:36.903Z,66.40
2018-10-06T21:57:06.452Z,66.40
2018-10-06T21:59:36.164Z,66.60
2018-10-06T22:02:05.378Z,66.50
2018-10-06T22:04:34.092Z,66.70
2018-10-06T22:07:01.765Z,66.90
2018-10-06T22:09:29.876Z,66.90
2018-10-06T22:11:58.583Z,66.80
2018-10-06T22:14:27.257Z,66.60
2018-10-06T22:16:55.831Z,66.30
2018-10-06T22:19:24.391Z,67.00
2018-10-06T22:21:53.148Z,66.40
2018-10-06T22:24:21.852Z,66.40
2018-10-06T22:26:50.749Z,66.40
2018-10-06T22:29:19.463Z,66.50
2018-10-06T22:31:47.055Z,66.80
2018-10-06T22:34:14.723Z,66.80
2018-10-06T22:36:42.436Z,66.70
2018-10-06T22:39:11.119Z,66.80
2018-10-06T22:41:39.888Z,66.70
2018-10-06T22:44:09.348Z,66.40
2018-10-06T22:46:37.752Z,66.30
2018-10-06T22:49:07.788Z,66.30
2018-10-06T22:51:38.614Z,66.30
2018-10-06T22:54:07.848Z,66.30
2018-10-06T22:56:37.633Z,66.40
2018-10-06T22:59:07.272Z,66.50
2018-10-06T23:01:37.052Z,66.40
2018-10-06T23:04:07.251Z,66.40
2018-10-06T23:06:35.338Z,66.70
2018-10-06T23:09:03.277Z,66.50
2018-10-06T23:11:30.945Z,66.50
2018-10-06T23:13:58.620Z,66.40
2018-10-06T23:16:26.294Z,66.20
2018-10-06T23:18:53.960Z,66.20
2018-10-06T23:21:21.640Z,66.30
2018-10-06T23:23:49.567Z,66.30
2018-10-06T23:26:17.236Z,66.50
2018-10-06T23:28:44.904Z,66.60
2018-10-06T23:31:12.574Z,66.70
2018-10-06T23:33:40.313Z,66.60
2018-10-06T23:36:07.976Z,66.80
2018-10-06T23:38:37.078Z,67.20
2018-10-06T23:41:05.621Z,66.50
2018-10-06T23:43:33.273Z,66.40
2018-10-06T23:46:00.984Z,66.40
2018-10-06T23:48:29.699Z,66.30
2018-10-06T23:50:58.361Z,66.30
2018-10-06T23:53:26.016Z,66.40
2018-10-06T23:55:54.598Z,66.40
2018-10-06T23:58:22.263Z,66.40
